sensor_id;sensor_type;location;lat;lon;timestamp;temperature;humidity
64833;HTU21D;51290;45.060;38.948;2023-05-01T11:57:00;16.30;53.69
64833;HTU21D;51290;45.060;38.948;2023-05-01T11:59:26;16.35;53.71
64833;HTU21D;51290;45.060;38.948;2023-05-01T12:01:52;16.40;53.72
64833;HTU21D;51290;45.060;38.948;2023-05-01T12:04:25;16.42;53.73
64833;HTU21D;51290;45.060;38.948;2023-05-01T12:06:54;16.40;53.77
64833;HTU21D;51290;45.060;38.948;2023-05-01T12:09:21;16.33;53.91
64833;HTU21D;51290;45.060;38.948;2023-05-01T12:11:51;16.27;54.10
64833;HTU21D;51290;45.060;38.948;2023-05-01T12:14:18;16.25;54.24
64833;HTU21D;51290;45.060;38.948;2023-05-01T12:16:45;16.24;54.42
64833;HTU21D;51290;45.060;38.948;2023-05-01T12:19:14;16.30;54.60
64833;HTU21D;51290;45.060;38.948;2023-05-01T12:21:41;16.43;54.63
64833;HTU21D;51290;45.060;38.948;2023-05-01T12:26:37;16.70;54.39
64833;HTU21D;51290;45.060;38.948;2023-05-01T12:29:05;16.84;54.33
64833;HTU21D;51290;45.060;38.948;2023-05-01T12:31:34;16.87;54.02
64833;HTU21D;51290;45.060;38.948;2023-05-01T12:34:05;16.81;54.09
64833;HTU21D;51290;45.060;38.948;2023-05-01T12:36:34;16.73;54.29
64833;HTU21D;51290;45.060;38.948;2023-05-01T12:39:10;16.70;54.46
64833;HTU21D;51290;45.060;38.948;2023-05-01T12:44:20;16.48;54.46
64833;HTU21D;51290;45.060;38.948;2023-05-01T12:49:20;16.30;55.02
64833;HTU21D;51290;45.060;38.948;2023-05-01T12:51:47;16.26;55.08
64833;HTU21D;51290;45.060;38.948;2023-05-01T12:54:17;16.17;55.17
64833;HTU21D;51290;45.060;38.948;2023-05-01T12:56:45;16.14;55.33
64833;HTU21D;51290;45.060;38.948;2023-05-01T12:59:21;16.16;55.44
64833;HTU21D;51290;45.060;38.948;2023-05-01T13:01:47;16.21;55.52
64833;HTU21D;51290;45.060;38.948;2023-05-01T13:04:20;16.32;55.51
64833;HTU21D;51290;45.060;38.948;2023-05-01T13:06:46;16.42;55.36
64833;HTU21D;51290;45.060;38.948;2023-05-01T13:09:13;16.46;55.28
64833;HTU21D;51290;45.060;38.948;2023-05-01T13:11:54;16.48;55.17
64833;HTU21D;51290;45.060;38.948;2023-05-01T13:14:21;16.48;55.25
64833;HTU21D;51290;45.060;38.948;2023-05-01T13:16:47;16.46;55.17
64833;HTU21D;51290;45.060;38.948;2023-05-01T13:19:22;16.39;55.15
64833;HTU21D;51290;45.060;38.948;2023-05-01T13:21:49;16.27;55.24
64833;HTU21D;51290;45.060;38.948;2023-05-01T13:24:15;16.18;55.52
64833;HTU21D;51290;45.060;38.948;2023-05-01T13:26:41;16.15;55.69
64833;HTU21D;51290;45.060;38.948;2023-05-01T13:29:07;16.10;55.69
64833;HTU21D;51290;45.060;38.948;2023-05-01T13:31:40;16.00;55.73
64833;HTU21D;51290;45.060;38.948;2023-05-01T13:34:07;15.92;55.84
64833;HTU21D;51290;45.060;38.948;2023-05-01T13:36:33;15.90;56.00
64833;HTU21D;51290;45.060;38.948;2023-05-01T13:38:59;15.88;55.91
64833;HTU21D;51290;45.060;38.948;2023-05-01T13:41:25;15.85;55.91
64833;HTU21D;51290;45.060;38.948;2023-05-01T13:43:53;15.82;55.75
64833;HTU21D;51290;45.060;38.948;2023-05-01T13:46:21;15.78;55.61
64833;HTU21D;51290;45.060;38.948;2023-05-01T13:48:48;15.73;55.69
64833;HTU21D;51290;45.060;38.948;2023-05-01T13:51:19;15.74;55.71
64833;HTU21D;51290;45.060;38.948;2023-05-01T13:53:46;15.76;55.77
64833;HTU21D;51290;45.060;38.948;2023-05-01T13:56:13;15.81;55.63
64833;HTU21D;51290;45.060;38.948;2023-05-01T13:58:41;15.83;55.64
64833;HTU21D;51290;45.060;38.948;2023-05-01T14:01:20;15.84;55.68
64833;HTU21D;51290;45.060;38.948;2023-05-01T14:03:47;15.84;55.58
64833;HTU21D;51290;45.060;38.948;2023-05-01T14:06:16;15.82;55.50
64833;HTU21D;51290;45.060;38.948;2023-05-01T14:08:43;15.80;55.66
64833;HTU21D;51290;45.060;38.948;2023-05-01T14:11:10;15.78;55.74
64833;HTU21D;51290;45.060;38.948;2023-05-01T14:13:40;15.75;55.63
64833;HTU21D;51290;45.060;38.948;2023-05-01T14:16:08;15.71;55.77
64833;HTU21D;51290;45.060;38.948;2023-05-01T14:18:45;15.70;55.94
64833;HTU21D;51290;45.060;38.948;2023-05-01T14:21:16;15.72;56.01
64833;HTU21D;51290;45.060;38.948;2023-05-01T14:23:42;15.73;56.03
64833;HTU21D;51290;45.060;38.948;2023-05-01T14:26:09;15.76;56.07
64833;HTU21D;51290;45.060;38.948;2023-05-01T14:28:43;15.82;56.16
64833;HTU21D;51290;45.060;38.948;2023-05-01T14:33:43;15.92;56.08
64833;HTU21D;51290;45.060;38.948;2023-05-01T14:36:11;15.98;56.04
64833;HTU21D;51290;45.060;38.948;2023-05-01T14:38:38;15.99;56.03
64833;HTU21D;51290;45.060;38.948;2023-05-01T14:41:06;15.99;56.01
64833;HTU21D;51290;45.060;38.948;2023-05-01T14:43:40;15.93;55.93
64833;HTU21D;51290;45.060;38.948;2023-05-01T14:46:07;15.91;56.07
64833;HTU21D;51290;45.060;38.948;2023-05-01T14:48:35;15.90;56.16
64833;HTU21D;51290;45.060;38.948;2023-05-01T14:51:11;15.89;56.18
64833;HTU21D;51290;45.060;38.948;2023-05-01T14:53:40;15.91;56.26
64833;HTU21D;51290;45.060;38.948;2023-05-01T14:56:09;15.93;56.29
64833;HTU21D;51290;45.060;38.948;2023-05-01T14:58:35;15.96;56.29
64833;HTU21D;51290;45.060;38.948;2023-05-01T15:01:01;15.97;56.28
64833;HTU21D;51290;45.060;38.948;2023-05-01T15:03:28;15.91;56.23
64833;HTU21D;51290;45.060;38.948;2023-05-01T15:05:54;15.87;56.36
64833;HTU21D;51290;45.060;38.948;2023-05-01T15:08:22;15.84;56.45
64833;HTU21D;51290;45.060;38.948;2023-05-01T15:10:50;15.82;56.53
64833;HTU21D;51290;45.060;38.948;2023-05-01T15:13:17;15.75;56.59
64833;HTU21D;51290;45.060;38.948;2023-05-01T15:15:44;15.68;56.68
64833;HTU21D;51290;45.060;38.948;2023-05-01T15:18:10;15.62;56.77
64833;HTU21D;51290;45.060;38.948;2023-05-01T15:20:36;15.54;56.84
64833;HTU21D;51290;45.060;38.948;2023-05-01T15:23:02;15.46;56.92
64833;HTU21D;51290;45.060;38.948;2023-05-01T15:25:28;15.37;57.01
64833;HTU21D;51290;45.060;38.948;2023-05-01T15:27:54;15.28;57.16
64833;HTU21D;51290;45.060;38.948;2023-05-01T15:30:20;15.18;57.26
64833;HTU21D;51290;45.060;38.948;2023-05-01T15:32:47;15.08;57.41
64833;HTU21D;51290;45.060;38.948;2023-05-01T15:35:13;14.94;57.64
64833;HTU21D;51290;45.060;38.948;2023-05-01T15:37:39;14.82;57.76
64833;HTU21D;51290;45.060;38.948;2023-05-01T15:40:06;14.71;58.03
64833;HTU21D;51290;45.060;38.948;2023-05-01T15:42:32;14.60;58.24
64833;HTU21D;51290;45.060;38.948;2023-05-01T15:44:58;14.51;58.48
64833;HTU21D;51290;45.060;38.948;2023-05-01T15:47:24;14.39;58.58
64833;HTU21D;51290;45.060;38.948;2023-05-01T15:49:50;14.28;58.91
64833;HTU21D;51290;45.060;38.948;2023-05-01T15:52:16;14.17;59.05
64833;HTU21D;51290;45.060;38.948;2023-05-01T15:54:45;14.07;59.24
64833;HTU21D;51290;45.060;38.948;2023-05-01T15:57:12;14.00;59.33
64833;HTU21D;51290;45.060;38.948;2023-05-01T15:59:39;13.93;59.61
64833;HTU21D;51290;45.060;38.948;2023-05-01T16:02:06;13.85;59.72
64833;HTU21D;51290;45.060;38.948;2023-05-01T16:04:33;13.80;60.10
64833;HTU21D;51290;45.060;38.948;2023-05-01T16:07:02;13.74;60.35
64833;HTU21D;51290;45.060;38.948;2023-05-01T16:09:31;13.68;60.47
64833;HTU21D;51290;45.060;38.948;2023-05-01T16:11:58;13.64;60.58
64833;HTU21D;51290;45.060;38.948;2023-05-01T16:14:25;13.60;60.85
64833;HTU21D;51290;45.060;38.948;2023-05-01T16:16:51;13.55;61.02
64833;HTU21D;51290;45.060;38.948;2023-05-01T16:19:17;13.52;61.16
64833;HTU21D;51290;45.060;38.948;2023-05-01T16:21:43;13.49;61.18
64833;HTU21D;51290;45.060;38.948;2023-05-01T16:24:09;13.46;61.34
64833;HTU21D;51290;45.060;38.948;2023-05-01T16:26:36;13.41;61.43
64833;HTU21D;51290;45.060;38.948;2023-05-01T16:29:06;13.37;61.64
64833;HTU21D;51290;45.060;38.948;2023-05-01T16:31:40;13.34;61.98
64833;HTU21D;51290;45.060;38.948;2023-05-01T16:34:09;13.27;62.15
64833;HTU21D;51290;45.060;38.948;2023-05-01T16:36:36;13.21;62.50
64833;HTU21D;51290;45.060;38.948;2023-05-01T16:39:14;13.16;62.63
64833;HTU21D;51290;45.060;38.948;2023-05-01T16:41:45;13.09;62.86
64833;HTU21D;51290;45.060;38.948;2023-05-01T16:44:12;13.05;62.94
64833;HTU21D;51290;45.060;38.948;2023-05-01T16:46:40;13.01;63.29
64833;HTU21D;51290;45.060;38.948;2023-05-01T16:49:09;12.94;63.47
64833;HTU21D;51290;45.060;38.948;2023-05-01T16:51:36;12.87;63.75
64833;HTU21D;51290;45.060;38.948;2023-05-01T16:54:03;12.78;63.86
64833;HTU21D;51290;45.060;38.948;2023-05-01T16:56:29;12.72;63.94
64833;HTU21D;51290;45.060;38.948;2023-05-01T16:58:56;12.66;64.01
64833;HTU21D;51290;45.060;38.948;2023-05-01T17:01:22;12.60;64.08
64833;HTU21D;51290;45.060;38.948;2023-05-01T17:03:48;12.55;64.21
64833;HTU21D;51290;45.060;38.948;2023-05-01T17:06:14;12.49;64.36
64833;HTU21D;51290;45.060;38.948;2023-05-01T17:08:41;12.43;64.47
64833;HTU21D;51290;45.060;38.948;2023-05-01T17:11:08;12.38;64.57
64833;HTU21D;51290;45.060;38.948;2023-05-01T17:13:34;12.33;64.63
64833;HTU21D;51290;45.060;38.948;2023-05-01T17:16:00;12.31;64.74
64833;HTU21D;51290;45.060;38.948;2023-05-01T17:18:26;12.27;64.91
64833;HTU21D;51290;45.060;38.948;2023-05-01T17:20:52;12.22;65.14
64833;HTU21D;51290;45.060;38.948;2023-05-01T17:23:18;12.20;65.21
64833;HTU21D;51290;45.060;38.948;2023-05-01T17:25:44;12.17;65.26
64833;HTU21D;51290;45.060;38.948;2023-05-01T17:28:10;12.15;65.46
64833;HTU21D;51290;45.060;38.948;2023-05-01T17:30:36;12.13;65.53
64833;HTU21D;51290;45.060;38.948;2023-05-01T17:33:02;12.11;65.81
64833;HTU21D;51290;45.060;38.948;2023-05-01T17:35:28;12.10;65.91
64833;HTU21D;51290;45.060;38.948;2023-05-01T17:37:54;12.06;65.96
64833;HTU21D;51290;45.060;38.948;2023-05-01T17:40:20;12.05;66.11
64833;HTU21D;51290;45.060;38.948;2023-05-01T17:42:46;12.02;66.29
64833;HTU21D;51290;45.060;38.948;2023-05-01T17:45:12;12.01;66.30
64833;HTU21D;51290;45.060;38.948;2023-05-01T17:47:38;11.98;66.46
64833;HTU21D;51290;45.060;38.948;2023-05-01T17:50:09;11.96;66.59
64833;HTU21D;51290;45.060;38.948;2023-05-01T17:52:35;11.92;66.63
64833;HTU21D;51290;45.060;38.948;2023-05-01T17:55:02;11.92;66.67
64833;HTU21D;51290;45.060;38.948;2023-05-01T17:57:28;11.92;66.78
64833;HTU21D;51290;45.060;38.948;2023-05-01T17:59:55;11.91;66.79
64833;HTU21D;51290;45.060;38.948;2023-05-01T18:02:21;11.88;66.83
64833;HTU21D;51290;45.060;38.948;2023-05-01T18:04:47;11.87;66.90
64833;HTU21D;51290;45.060;38.948;2023-05-01T18:07:15;11.85;66.94
64833;HTU21D;51290;45.060;38.948;2023-05-01T18:09:41;11.84;67.01
64833;HTU21D;51290;45.060;38.948;2023-05-01T18:12:07;11.83;67.07
64833;HTU21D;51290;45.060;38.948;2023-05-01T18:14:32;11.82;67.15
64833;HTU21D;51290;45.060;38.948;2023-05-01T18:16:58;11.81;67.23
64833;HTU21D;51290;45.060;38.948;2023-05-01T18:19:24;11.78;67.33
64833;HTU21D;51290;45.060;38.948;2023-05-01T18:21:50;11.76;67.43
64833;HTU21D;51290;45.060;38.948;2023-05-01T18:24:16;11.75;0.00
64833;HTU21D;51290;45.060;38.948;2023-05-01T18:26:42;11.72;67.62
64833;HTU21D;51290;45.060;38.948;2023-05-01T18:29:08;11.72;67.75
64833;HTU21D;51290;45.060;38.948;2023-05-01T18:31:34;11.71;67.78
64833;HTU21D;51290;45.060;38.948;2023-05-01T18:34:02;11.70;67.92
64833;HTU21D;51290;45.060;38.948;2023-05-01T18:36:29;11.70;67.96
64833;HTU21D;51290;45.060;38.948;2023-05-01T18:38:56;11.69;68.12
64833;HTU21D;51290;45.060;38.948;2023-05-01T18:41:22;11.67;68.20
64833;HTU21D;51290;45.060;38.948;2023-05-01T18:43:50;11.67;68.32
64833;HTU21D;51290;45.060;38.948;2023-05-01T18:46:17;11.67;68.39
64833;HTU21D;51290;45.060;38.948;2023-05-01T18:48:43;11.68;68.42
64833;HTU21D;51290;45.060;38.948;2023-05-01T18:51:10;11.67;68.46
64833;HTU21D;51290;45.060;38.948;2023-05-01T18:53:37;11.69;68.50
64833;HTU21D;51290;45.060;38.948;2023-05-01T18:56:03;11.70;68.55
64833;HTU21D;51290;45.060;38.948;2023-05-01T18:58:30;11.71;68.55
64833;HTU21D;51290;45.060;38.948;2023-05-01T19:00:56;11.72;68.62
64833;HTU21D;51290;45.060;38.948;2023-05-01T19:03:22;11.74;68.64
64833;HTU21D;51290;45.060;38.948;2023-05-01T19:05:48;11.76;68.68
64833;HTU21D;51290;45.060;38.948;2023-05-01T19:08:14;11.77;68.71
64833;HTU21D;51290;45.060;38.948;2023-05-01T19:10:40;11.78;68.71
64833;HTU21D;51290;45.060;38.948;2023-05-01T19:13:07;11.81;68.74
64833;HTU21D;51290;45.060;38.948;2023-05-01T19:15:33;11.82;68.81
64833;HTU21D;51290;45.060;38.948;2023-05-01T19:17:59;11.82;68.87
64833;HTU21D;51290;45.060;38.948;2023-05-01T19:20:25;11.85;68.89
64833;HTU21D;51290;45.060;38.948;2023-05-01T19:22:51;11.85;68.87
64833;HTU21D;51290;45.060;38.948;2023-05-01T19:25:17;11.89;68.91
64833;HTU21D;51290;45.060;38.948;2023-05-01T19:27:43;11.90;68.95
64833;HTU21D;51290;45.060;38.948;2023-05-01T19:30:11;11.91;68.97
64833;HTU21D;51290;45.060;38.948;2023-05-01T19:32:37;11.94;69.01
64833;HTU21D;51290;45.060;38.948;2023-05-01T19:35:03;11.97;69.03
64833;HTU21D;51290;45.060;38.948;2023-05-01T19:37:29;11.97;69.02
64833;HTU21D;51290;45.060;38.948;2023-05-01T19:39:55;11.97;69.09
64833;HTU21D;51290;45.060;38.948;2023-05-01T19:42:21;11.99;69.13
64833;HTU21D;51290;45.060;38.948;2023-05-01T19:44:47;11.99;69.16
64833;HTU21D;51290;45.060;38.948;2023-05-01T19:47:13;12.00;69.39
64833;HTU21D;51290;45.060;38.948;2023-05-01T19:49:39;11.94;69.50
64833;HTU21D;51290;45.060;38.948;2023-05-01T19:52:05;11.86;69.52
64833;HTU21D;51290;45.060;38.948;2023-05-01T19:54:31;11.76;69.68
64833;HTU21D;51290;45.060;38.948;2023-05-01T19:56:57;11.67;69.85
64833;HTU21D;51290;45.060;38.948;2023-05-01T19:59:23;11.57;70.04
64833;HTU21D;51290;45.060;38.948;2023-05-01T20:01:49;11.46;70.41
64833;HTU21D;51290;45.060;38.948;2023-05-01T20:04:15;11.36;70.55
64833;HTU21D;51290;45.060;38.948;2023-05-01T20:06:41;11.26;70.63
64833;HTU21D;51290;45.060;38.948;2023-05-01T20:09:07;11.18;70.83
64833;HTU21D;51290;45.060;38.948;2023-05-01T20:11:33;11.13;70.96
64833;HTU21D;51290;45.060;38.948;2023-05-01T20:13:59;11.09;70.97
64833;HTU21D;51290;45.060;38.948;2023-05-01T20:16:28;11.05;71.04
64833;HTU21D;51290;45.060;38.948;2023-05-01T20:18:55;11.01;71.05
64833;HTU21D;51290;45.060;38.948;2023-05-01T20:21:20;10.99;71.06
64833;HTU21D;51290;45.060;38.948;2023-05-01T20:23:46;10.98;71.06
64833;HTU21D;51290;45.060;38.948;2023-05-01T20:26:13;10.98;71.01
64833;HTU21D;51290;45.060;38.948;2023-05-01T20:28:39;10.97;70.95
64833;HTU21D;51290;45.060;38.948;2023-05-01T20:31:05;10.90;70.95
64833;HTU21D;51290;45.060;38.948;2023-05-01T20:33:31;10.85;70.92
64833;HTU21D;51290;45.060;38.948;2023-05-01T20:35:57;10.78;71.00
64833;HTU21D;51290;45.060;38.948;2023-05-01T20:38:25;10.72;71.10
64833;HTU21D;51290;45.060;38.948;2023-05-01T20:40:51;10.68;71.13
64833;HTU21D;51290;45.060;38.948;2023-05-01T20:43:17;10.64;71.14
64833;HTU21D;51290;45.060;38.948;2023-05-01T20:45:43;10.60;71.13
64833;HTU21D;51290;45.060;38.948;2023-05-01T20:48:09;10.57;71.20
64833;HTU21D;51290;45.060;38.948;2023-05-01T20:50:36;10.55;71.26
64833;HTU21D;51290;45.060;38.948;2023-05-01T20:53:02;10.56;71.29
64833;HTU21D;51290;45.060;38.948;2023-05-01T20:55:28;10.57;71.32
64833;HTU21D;51290;45.060;38.948;2023-05-01T20:57:54;10.57;71.42
64833;HTU21D;51290;45.060;38.948;2023-05-01T21:00:20;10.54;71.45
64833;HTU21D;51290;45.060;38.948;2023-05-01T21:02:46;10.54;71.45
64833;HTU21D;51290;45.060;38.948;2023-05-01T21:05:12;10.55;71.56
64833;HTU21D;51290;45.060;38.948;2023-05-01T21:07:39;10.57;71.61
64833;HTU21D;51290;45.060;38.948;2023-05-01T21:10:08;10.60;71.67
64833;HTU21D;51290;45.060;38.948;2023-05-01T21:12:34;10.62;71.67
64833;HTU21D;51290;45.060;38.948;2023-05-01T21:15:04;10.63;71.69
64833;HTU21D;51290;45.060;38.948;2023-05-01T21:17:32;10.63;71.72
64833;HTU21D;51290;45.060;38.948;2023-05-01T21:19:58;10.62;71.74
64833;HTU21D;51290;45.060;38.948;2023-05-01T21:22:24;10.64;71.76
64833;HTU21D;51290;45.060;38.948;2023-05-01T21:24:55;10.66;71.73
64833;HTU21D;51290;45.060;38.948;2023-05-01T21:27:22;10.68;71.72
64833;HTU21D;51290;45.060;38.948;2023-05-01T21:29:59;10.70;71.61
64833;HTU21D;51290;45.060;38.948;2023-05-01T21:32:31;10.70;71.61
64833;HTU21D;51290;45.060;38.948;2023-05-01T21:34:59;10.70;71.60
64833;HTU21D;51290;45.060;38.948;2023-05-01T21:37:25;10.69;71.59
64833;HTU21D;51290;45.060;38.948;2023-05-01T21:39:51;10.69;71.58
64833;HTU21D;51290;45.060;38.948;2023-05-01T21:42:17;10.69;71.61
64833;HTU21D;51290;45.060;38.948;2023-05-01T21:44:43;10.67;71.66
64833;HTU21D;51290;45.060;38.948;2023-05-01T21:47:09;10.68;71.71
64833;HTU21D;51290;45.060;38.948;2023-05-01T21:49:37;10.69;71.73
64833;HTU21D;51290;45.060;38.948;2023-05-01T21:52:04;10.68;71.71
64833;HTU21D;51290;45.060;38.948;2023-05-01T21:54:31;10.68;71.71
64833;HTU21D;51290;45.060;38.948;2023-05-01T21:56:59;10.66;71.70
64833;HTU21D;51290;45.060;38.948;2023-05-01T21:59:36;10.65;71.74
64833;HTU21D;51290;45.060;38.948;2023-05-01T22:02:10;10.63;71.76
64833;HTU21D;51290;45.060;38.948;2023-05-01T22:04:36;10.60;71.84
64833;HTU21D;51290;45.060;38.948;2023-05-01T22:07:03;10.60;71.87
64833;HTU21D;51290;45.060;38.948;2023-05-01T22:09:30;10.60;71.90
64833;HTU21D;51290;45.060;38.948;2023-05-01T22:11:57;10.60;71.93
64833;HTU21D;51290;45.060;38.948;2023-05-01T22:14:26;10.59;71.98
64833;HTU21D;51290;45.060;38.948;2023-05-01T22:16:52;10.62;72.00
64833;HTU21D;51290;45.060;38.948;2023-05-01T22:19:18;10.62;72.03
64833;HTU21D;51290;45.060;38.948;2023-05-01T22:21:44;10.63;72.07
64833;HTU21D;51290;45.060;38.948;2023-05-01T22:24:10;10.63;72.06
64833;HTU21D;51290;45.060;38.948;2023-05-01T22:26:36;10.64;72.11
64833;HTU21D;51290;45.060;38.948;2023-05-01T22:29:02;10.64;72.11
64833;HTU21D;51290;45.060;38.948;2023-05-01T22:31:28;10.64;72.13
64833;HTU21D;51290;45.060;38.948;2023-05-01T22:33:54;10.63;72.21
64833;HTU21D;51290;45.060;38.948;2023-05-01T22:36:20;10.63;72.22
64833;HTU21D;51290;45.060;38.948;2023-05-01T22:38:46;10.64;72.24
64833;HTU21D;51290;45.060;38.948;2023-05-01T22:41:12;10.64;72.25
64833;HTU21D;51290;45.060;38.948;2023-05-01T22:43:39;10.65;72.30
64833;HTU21D;51290;45.060;38.948;2023-05-01T22:46:05;10.68;72.35
64833;HTU21D;51290;45.060;38.948;2023-05-01T22:48:31;10.67;72.39
64833;HTU21D;51290;45.060;38.948;2023-05-01T22:50:57;10.69;72.38
64833;HTU21D;51290;45.060;38.948;2023-05-01T22:53:24;10.70;72.37
64833;HTU21D;51290;45.060;38.948;2023-05-01T22:55:51;10.70;72.32
64833;HTU21D;51290;45.060;38.948;2023-05-01T22:58:17;10.68;72.35
64833;HTU21D;51290;45.060;38.948;2023-05-01T23:00:43;10.68;72.38
64833;HTU21D;51290;45.060;38.948;2023-05-01T23:03:09;10.66;72.41
64833;HTU21D;51290;45.060;38.948;2023-05-01T23:05:35;10.65;72.47
64833;HTU21D;51290;45.060;38.948;2023-05-01T23:08:01;10.63;72.53
64833;HTU21D;51290;45.060;38.948;2023-05-01T23:10:27;10.63;72.54
64833;HTU21D;51290;45.060;38.948;2023-05-01T23:12:53;10.57;72.55
64833;HTU21D;51290;45.060;38.948;2023-05-01T23:15:23;10.52;72.62
64833;HTU21D;51290;45.060;38.948;2023-05-01T23:17:50;10.49;72.70
64833;HTU21D;51290;45.060;38.948;2023-05-01T23:20:20;10.46;72.82
64833;HTU21D;51290;45.060;38.948;2023-05-01T23:22:48;10.46;72.87
64833;HTU21D;51290;45.060;38.948;2023-05-01T23:25:24;10.48;72.93
64833;HTU21D;51290;45.060;38.948;2023-05-01T23:27:52;10.50;72.93
64833;HTU21D;51290;45.060;38.948;2023-05-01T23:30:20;10.50;72.96
64833;HTU21D;51290;45.060;38.948;2023-05-01T23:32:46;10.52;72.99
64833;HTU21D;51290;45.060;38.948;2023-05-01T23:35:15;10.54;73.01
64833;HTU21D;51290;45.060;38.948;2023-05-01T23:37:43;10.53;72.99
64833;HTU21D;51290;45.060;38.948;2023-05-01T23:40:10;10.53;73.01
64833;HTU21D;51290;45.060;38.948;2023-05-01T23:42:36;10.52;73.07
64833;HTU21D;51290;45.060;38.948;2023-05-01T23:45:04;10.52;73.13
64833;HTU21D;51290;45.060;38.948;2023-05-01T23:47:30;10.51;73.19
64833;HTU21D;51290;45.060;38.948;2023-05-01T23:49:56;10.52;73.21
64833;HTU21D;51290;45.060;38.948;2023-05-01T23:52:22;10.53;73.18
64833;HTU21D;51290;45.060;38.948;2023-05-01T23:54:48;10.50;73.16
64833;HTU21D;51290;45.060;38.948;2023-05-01T23:57:14;10.46;73.19
64833;HTU21D;51290;45.060;38.948;2023-05-01T23:59:40;10.42;73.27
